createdAt,value
2022-11-02T00:00:17.617Z,3.88
2022-11-02T00:02:20.278Z,6.38
2022-11-02T00:04:22.908Z,5.88
2022-11-02T00:06:25.564Z,8.02
2022-11-02T00:08:28.191Z,6.25
2022-11-02T00:10:32.223Z,5.85
2022-11-02T00:12:34.934Z,5.65
2022-11-02T00:14:37.590Z,5.50
2022-11-02T00:16:41.253Z,7.03
2022-11-02T00:18:45.620Z,4.65
2022-11-02T00:20:48.740Z,6.25
2022-11-02T00:22:53.585Z,3.97
2022-11-02T00:24:56.726Z,4.93
2022-11-02T00:27:01.084Z,5.57
2022-11-02T00:29:04.394Z,7.35
2022-11-02T00:31:07.009Z,7.57
2022-11-02T00:33:09.730Z,6.78
2022-11-02T00:35:12.541Z,7.80
2022-11-02T00:37:15.106Z,6.22
2022-11-02T00:39:17.704Z,7.05
2022-11-02T00:41:21.988Z,5.15
2022-11-02T00:43:25.940Z,7.55
2022-11-02T00:45:28.492Z,7.57
2022-11-02T00:47:31.066Z,6.85
2022-11-02T00:49:33.682Z,6.28
2022-11-02T00:51:36.301Z,4.32
2022-11-02T00:53:38.875Z,6.90
2022-11-02T00:55:41.462Z,6.03
2022-11-02T00:57:44.187Z,5.80
2022-11-02T00:59:48.174Z,8.77
2022-11-02T01:01:50.910Z,6.22
2022-11-02T01:03:53.613Z,5.07
2022-11-02T01:05:56.221Z,4.68
2022-11-02T01:07:58.833Z,6.22
2022-11-02T01:10:01.509Z,5.70
2022-11-02T01:12:04.121Z,6.95
2022-11-02T01:14:06.682Z,11.82
2022-11-02T01:16:11.883Z,5.20
2022-11-02T01:18:14.431Z,6.45
2022-11-02T01:20:17.158Z,6.20
2022-11-02T01:22:19.732Z,6.18
2022-11-02T01:24:22.321Z,4.95
2022-11-02T01:26:24.965Z,6.90
2022-11-02T01:28:27.565Z,5.68
2022-11-02T01:30:30.216Z,5.32
2022-11-02T01:32:34.200Z,5.45
2022-11-02T01:34:36.954Z,6.55
2022-11-02T01:36:39.608Z,5.75
2022-11-02T01:38:42.413Z,6.88
2022-11-02T01:40:45.182Z,5.82
2022-11-02T01:42:47.756Z,4.97
2022-11-02T01:44:50.414Z,6.35
2022-11-02T01:46:55.927Z,5.85
2022-11-02T01:49:04.546Z,5.70
2022-11-02T01:51:11.286Z,6.35
2022-11-02T01:55:21.004Z,7.03
2022-11-02T01:57:25.024Z,5.00
2022-11-02T01:59:33.392Z,5.35
2022-11-02T02:01:36.465Z,5.65
2022-11-02T02:03:40.991Z,4.70
2022-11-02T02:05:50.288Z,5.55
2022-11-02T02:07:53.703Z,7.68
2022-11-02T02:09:56.882Z,6.13
2022-11-02T02:11:59.453Z,5.00
2022-11-02T02:14:05.606Z,4.35
2022-11-02T02:16:16.877Z,6.05
2022-11-02T02:18:24.899Z,7.35
2022-11-02T02:20:52.360Z,5.90
2022-11-02T02:23:14.528Z,6.20
2022-11-02T02:25:28.937Z,4.68
2022-11-02T02:27:46.757Z,5.50
2022-11-02T02:30:09.565Z,6.88
2022-11-02T02:32:17.591Z,6.60
2022-11-02T02:34:24.326Z,5.78
2022-11-02T02:38:36.708Z,6.18
2022-11-02T02:40:46.693Z,5.82
2022-11-02T02:42:56.273Z,5.20
2022-11-02T02:45:05.554Z,4.88
2022-11-02T02:47:13.685Z,4.90
2022-11-02T02:49:22.595Z,6.68
2022-11-02T02:51:29.556Z,5.00
2022-11-02T02:53:37.057Z,6.10
2022-11-02T02:55:44.147Z,6.03
2022-11-02T02:57:48.224Z,7.10
2022-11-02T02:59:52.155Z,6.30
2022-11-02T03:01:56.821Z,6.85
2022-11-02T03:03:59.557Z,6.00
2022-11-02T03:06:11.101Z,4.90
2022-11-02T03:08:17.402Z,5.03
2022-11-02T03:10:23.108Z,4.63
2022-11-02T03:12:39.490Z,5.90
2022-11-02T03:14:51.158Z,7.55
2022-11-02T03:17:10.299Z,5.28
2022-11-02T03:19:21.585Z,5.72
2022-11-02T03:21:29.217Z,5.35
2022-11-02T03:23:36.314Z,7.80
2022-11-02T03:25:48.486Z,8.77
2022-11-02T03:27:55.998Z,5.60
2022-11-02T03:30:05.233Z,6.28
2022-11-02T03:32:13.729Z,4.55
2022-11-02T03:34:25.539Z,6.13
2022-11-02T03:36:34.476Z,7.13
2022-11-02T03:38:45.308Z,6.22
2022-11-02T03:40:51.694Z,6.50
2022-11-02T03:42:55.772Z,9.15
2022-11-02T03:45:03.532Z,5.35
2022-11-02T03:47:09.780Z,7.45
2022-11-02T03:49:17.622Z,4.90
2022-11-02T03:51:23.843Z,6.88
2022-11-02T03:53:33.546Z,8.88
2022-11-02T03:55:40.502Z,8.55
2022-11-02T03:57:46.893Z,8.27
2022-11-02T03:59:49.477Z,4.45
2022-11-02T04:01:53.510Z,5.82
2022-11-02T04:03:56.244Z,3.45
2022-11-02T04:06:00.234Z,7.05
2022-11-02T04:08:21.999Z,9.35
2022-11-02T04:10:24.643Z,5.55
2022-11-02T04:12:44.727Z,7.15
2022-11-02T04:14:47.674Z,6.15
2022-11-02T04:16:50.338Z,7.43
2022-11-02T04:19:10.329Z,7.15
2022-11-02T04:21:14.271Z,6.15
2022-11-02T04:23:34.569Z,4.70
2022-11-02T04:25:36.234Z,6.97
2022-11-02T04:27:38.945Z,8.93
2022-11-02T04:29:41.957Z,6.72
2022-11-02T04:31:44.565Z,5.50
2022-11-02T04:33:46.122Z,5.00
2022-11-02T04:35:48.701Z,6.65
2022-11-02T04:38:11.106Z,7.97
2022-11-02T04:40:13.937Z,6.43
2022-11-02T04:42:16.568Z,5.65
2022-11-02T04:44:19.559Z,5.80
2022-11-02T04:46:23.830Z,4.68
2022-11-02T04:48:26.398Z,6.65
2022-11-02T04:50:29.094Z,6.75
2022-11-02T04:52:31.658Z,7.25
2022-11-02T04:54:35.622Z,6.20
2022-11-02T04:56:38.250Z,6.28
2022-11-02T04:58:41.049Z,8.30
2022-11-02T05:00:43.950Z,7.68
2022-11-02T05:02:47.721Z,5.13
2022-11-02T05:04:50.437Z,5.47
2022-11-02T05:06:54.524Z,5.15
2022-11-02T05:08:59.079Z,8.23
2022-11-02T05:11:03.063Z,5.57
2022-11-02T05:13:06.103Z,4.70
2022-11-02T05:15:09.520Z,9.35
2022-11-02T05:17:13.303Z,5.30
2022-11-02T05:19:15.896Z,5.53
2022-11-02T05:21:18.526Z,5.53
2022-11-02T05:23:22.423Z,9.10
2022-11-02T05:25:25.002Z,5.97
2022-11-02T05:27:28.977Z,4.22
2022-11-02T05:29:31.592Z,8.30
2022-11-02T05:31:34.224Z,9.45
2022-11-02T05:33:37.086Z,4.80
2022-11-02T05:35:39.696Z,4.53
2022-11-02T05:37:42.277Z,6.85
2022-11-02T05:39:47.790Z,6.65
2022-11-02T05:41:52.973Z,6.30
2022-11-02T05:43:56.930Z,4.22
2022-11-02T05:46:01.495Z,8.07
2022-11-02T05:48:06.599Z,6.32
2022-11-02T05:50:10.927Z,5.45
2022-11-02T05:52:13.843Z,6.93
2022-11-02T05:54:16.463Z,6.60
2022-11-02T05:56:24.616Z,4.28
2022-11-02T05:58:28.206Z,5.43
2022-11-02T06:00:32.184Z,5.65
2022-11-02T06:02:35.207Z,7.88
2022-11-02T06:04:37.809Z,6.78
2022-11-02T06:06:40.460Z,6.18
2022-11-02T06:08:43.128Z,3.50
2022-11-02T06:10:45.753Z,8.85
2022-11-02T06:12:48.396Z,5.75
2022-11-02T06:14:51.031Z,5.28
2022-11-02T06:16:55.058Z,5.90
2022-11-02T06:18:57.936Z,9.00
2022-11-02T06:21:00.690Z,5.63
2022-11-02T06:23:03.963Z,7.47
2022-11-02T06:25:07.783Z,4.65
2022-11-02T06:27:10.410Z,7.50
2022-11-02T06:29:13.021Z,4.32
2022-11-02T06:31:17.314Z,10.20
2022-11-02T06:33:21.574Z,5.57
2022-11-02T06:35:24.521Z,6.40
2022-11-02T06:37:27.148Z,5.00
2022-11-02T06:39:29.839Z,6.78
2022-11-02T06:41:32.494Z,7.03
2022-11-02T06:43:38.081Z,6.30
2022-11-02T06:45:40.683Z,5.47
2022-11-02T06:47:43.291Z,10.57
2022-11-02T06:49:47.263Z,6.43
2022-11-02T06:51:51.861Z,7.43
2022-11-02T06:53:54.476Z,7.97
2022-11-02T06:55:58.718Z,5.60
2022-11-02T06:58:01.332Z,5.85
2022-11-02T07:00:05.241Z,5.82
2022-11-02T07:02:09.432Z,4.82
2022-11-02T07:04:12.114Z,6.55
2022-11-02T07:06:16.075Z,9.48
2022-11-02T07:08:18.782Z,4.50
2022-11-02T07:10:21.451Z,6.90
2022-11-02T07:12:24.235Z,5.38
2022-11-02T07:14:26.843Z,7.57
2022-11-02T07:16:30.615Z,5.28
2022-11-02T07:18:33.216Z,7.18
2022-11-02T07:20:36.746Z,6.78
2022-11-02T07:22:40.761Z,6.53
2022-11-02T07:24:43.345Z,8.50
2022-11-02T07:26:48.959Z,5.85
2022-11-02T07:28:56.561Z,6.82
2022-11-02T07:31:01.840Z,6.72
2022-11-02T07:33:04.955Z,6.72
2022-11-02T07:35:09.738Z,6.85
2022-11-02T07:37:12.421Z,5.60
2022-11-02T07:39:16.390Z,8.50
2022-11-02T07:41:19.040Z,9.68
2022-11-02T07:43:21.677Z,6.43
2022-11-02T07:45:25.902Z,7.07
2022-11-02T07:47:30.149Z,4.25
2022-11-02T07:49:32.781Z,5.40
2022-11-02T07:51:35.571Z,5.50
2022-11-02T07:53:38.356Z,5.25
2022-11-02T07:55:42.308Z,5.35
2022-11-02T07:57:53.144Z,8.02
2022-11-02T07:59:55.757Z,6.80
2022-11-02T08:01:58.655Z,7.20
2022-11-02T08:04:01.320Z,5.82
2022-11-02T08:06:04.318Z,8.73
2022-11-02T08:08:08.839Z,5.63
2022-11-02T08:10:11.591Z,6.90
2022-11-02T08:12:15.563Z,6.00
2022-11-02T08:14:18.159Z,5.60
2022-11-02T08:16:20.801Z,10.07
2022-11-02T08:18:24.903Z,7.57
2022-11-02T08:20:27.545Z,5.35
2022-11-02T08:22:30.350Z,8.82
2022-11-02T08:24:33.007Z,8.15
2022-11-02T08:26:36.936Z,8.18
2022-11-02T08:28:42.030Z,7.35
2022-11-02T08:30:44.751Z,10.32
2022-11-02T08:32:47.354Z,6.63
2022-11-02T08:34:49.986Z,9.82
2022-11-02T08:36:52.654Z,6.80
2022-11-02T08:38:55.374Z,5.35
2022-11-02T08:40:58.158Z,7.38
2022-11-02T08:43:02.224Z,6.68
2022-11-02T08:45:07.811Z,6.18
2022-11-02T08:47:10.688Z,6.55
2022-11-02T08:49:13.313Z,5.00
2022-11-02T08:51:16.190Z,5.03
2022-11-02T08:53:19.222Z,10.05
2022-11-02T08:55:22.025Z,4.35
2022-11-02T08:57:24.641Z,7.30
2022-11-02T08:59:27.270Z,5.05
2022-11-02T09:01:31.482Z,4.45
2022-11-02T09:03:34.135Z,5.90
2022-11-02T09:05:39.582Z,5.30
2022-11-02T09:07:42.289Z,4.75
2022-11-02T09:09:45.251Z,5.15
2022-11-02T09:11:50.825Z,4.15
2022-11-02T09:13:56.888Z,5.95
2022-11-02T09:16:00.787Z,5.30
2022-11-02T09:18:05.173Z,5.07
2022-11-02T09:20:09.044Z,5.72
2022-11-02T09:22:12.275Z,5.00
2022-11-02T09:24:14.933Z,3.40
2022-11-02T09:26:17.674Z,6.65
2022-11-02T09:28:20.419Z,5.28
2022-11-02T09:30:24.650Z,6.47
2022-11-02T09:32:27.657Z,4.80
2022-11-02T09:34:31.633Z,5.72
2022-11-02T09:36:35.209Z,6.70
2022-11-02T09:38:38.147Z,7.05
2022-11-02T09:40:44.484Z,9.05
2022-11-02T09:42:59.806Z,5.25
2022-11-02T09:45:05.683Z,6.57
2022-11-02T09:48:03.357Z,4.63
2022-11-02T09:49:37.374Z,8.40
2022-11-02T09:51:43.163Z,6.30
2022-11-02T09:53:57.519Z,4.43
2022-11-02T09:56:03.250Z,7.68
2022-11-02T09:58:13.026Z,4.18
2022-11-02T10:00:18.468Z,6.55
2022-11-02T10:02:32.067Z,4.97
2022-11-02T10:05:01.131Z,3.90
2022-11-02T10:07:10.823Z,8.20
2022-11-02T10:09:21.138Z,8.40
2022-11-02T10:11:38.848Z,5.80
2022-11-02T10:13:45.247Z,4.30
2022-11-02T10:15:51.847Z,4.47
2022-11-02T10:17:58.772Z,6.95
2022-11-02T10:20:08.138Z,6.88
2022-11-02T10:22:15.193Z,6.45
2022-11-02T10:24:25.330Z,6.60
2022-11-02T10:26:30.592Z,6.65
2022-11-02T10:28:37.368Z,4.75
2022-11-02T10:30:40.896Z,8.23
2022-11-02T10:32:45.039Z,5.97
2022-11-02T10:34:58.466Z,5.32
2022-11-02T10:37:20.785Z,4.88
2022-11-02T10:39:32.140Z,6.88
2022-11-02T10:41:53.683Z,4.90
2022-11-02T10:44:09.979Z,5.70
2022-11-02T10:46:38.102Z,6.32
2022-11-02T10:48:49.461Z,4.95
2022-11-02T10:50:58.729Z,6.13
2022-11-02T10:53:35.227Z,5.97
2022-11-02T10:55:32.995Z,8.75
2022-11-02T10:57:39.659Z,9.00
2022-11-02T10:59:42.535Z,6.25
2022-11-02T11:02:05.108Z,5.53
2022-11-02T11:04:22.236Z,4.95
2022-11-02T11:06:25.899Z,7.55
2022-11-02T11:08:51.957Z,6.72
2022-11-02T11:10:54.579Z,5.05
2022-11-02T11:12:57.858Z,4.32
2022-11-02T11:19:53.272Z,5.45
2022-11-02T11:21:56.571Z,6.80
2022-11-02T11:24:19.892Z,4.82
2022-11-02T11:26:29.028Z,3.50
2022-11-02T11:28:34.504Z,6.85
2022-11-02T11:30:58.998Z,9.18
2022-11-02T11:33:04.756Z,5.78
2022-11-02T11:35:17.401Z,3.80
2022-11-02T11:37:20.251Z,6.80
2022-11-02T11:39:29.308Z,7.05
2022-11-02T11:41:35.208Z,8.18
2022-11-02T11:43:39.341Z,6.28
2022-11-02T11:45:57.280Z,4.22
2022-11-02T11:48:08.437Z,5.30
2022-11-02T11:50:21.027Z,6.97
2022-11-02T11:52:32.057Z,5.72
2022-11-02T11:54:39.008Z,8.32
2022-11-02T11:58:52.241Z,7.50
2022-11-02T12:01:09.138Z,6.22
2022-11-02T12:03:16.318Z,4.93
2022-11-02T12:05:20.964Z,6.05
2022-11-02T12:08:00.641Z,8.20
2022-11-02T12:10:15.661Z,2.83
2022-11-02T12:12:31.405Z,6.78
2022-11-02T12:14:48.581Z,5.95
2022-11-02T12:17:07.455Z,5.63
2022-11-02T12:19:23.143Z,4.07
2022-11-02T12:21:45.072Z,5.90
2022-11-02T12:24:06.398Z,7.32
2022-11-02T12:26:23.168Z,5.88
2022-11-02T12:28:35.813Z,5.13
2022-11-02T12:30:51.059Z,8.38
2022-11-02T12:33:07.917Z,5.50
2022-11-02T12:35:29.811Z,8.73
2022-11-02T12:37:45.425Z,7.00
2022-11-02T12:40:03.861Z,3.90
2022-11-02T12:42:21.981Z,3.55
2022-11-02T12:44:39.878Z,5.35
2022-11-02T12:46:49.278Z,7.40
2022-11-02T12:49:00.973Z,4.20
2022-11-02T12:51:08.441Z,5.00
2022-11-02T12:53:37.715Z,7.68
2022-11-02T12:55:45.869Z,8.57
2022-11-02T12:57:50.394Z,6.50
2022-11-02T12:59:56.553Z,3.95
2022-11-02T13:04:19.794Z,6.20
2022-11-02T13:06:30.145Z,5.88
2022-11-02T13:08:37.319Z,4.57
2022-11-02T13:10:44.517Z,9.90
2022-11-02T13:12:54.001Z,5.90
2022-11-02T13:14:59.380Z,6.10
2022-11-02T13:17:06.826Z,5.85
2022-11-02T13:19:16.629Z,4.25
2022-11-02T13:21:28.635Z,6.43
2022-11-02T13:23:36.415Z,6.07
2022-11-02T13:25:43.680Z,5.72
2022-11-02T13:27:53.246Z,7.32
2022-11-02T13:29:59.692Z,3.53
2022-11-02T13:34:15.908Z,6.80
2022-11-02T13:36:19.487Z,5.07
2022-11-02T13:38:32.185Z,3.65
2022-11-02T13:40:41.096Z,7.95
2022-11-02T13:43:18.774Z,4.63
2022-11-02T13:45:40.008Z,7.18
2022-11-02T13:48:13.802Z,5.78
2022-11-02T13:50:20.330Z,6.07
2022-11-02T13:54:33.524Z,6.25
2022-11-02T13:56:38.289Z,5.10
2022-11-02T13:58:48.566Z,7.55
2022-11-02T14:00:52.874Z,5.18
2022-11-02T14:03:00.051Z,5.63
2022-11-02T14:05:03.437Z,6.53
2022-11-02T14:07:09.168Z,5.63
2022-11-02T14:09:23.979Z,5.95
2022-11-02T14:11:35.092Z,4.47
2022-11-02T14:14:25.329Z,4.75
2022-11-02T14:16:57.862Z,6.97
2022-11-02T14:19:21.884Z,5.18
2022-11-02T14:21:43.532Z,5.20
2022-11-02T14:23:46.180Z,7.32
2022-11-02T14:25:49.834Z,6.63
2022-11-02T14:27:55.270Z,7.53
2022-11-02T14:29:59.881Z,5.63
2022-11-02T14:32:06.096Z,3.92
2022-11-02T14:34:33.545Z,6.65
2022-11-02T14:36:54.647Z,8.88
2022-11-02T14:41:32.714Z,6.95
2022-11-02T14:43:58.385Z,4.82
2022-11-02T14:46:17.550Z,6.32
2022-11-02T14:48:20.287Z,5.50
2022-11-02T14:50:23.139Z,5.75
2022-11-02T14:52:29.240Z,7.30
2022-11-02T14:54:34.556Z,9.07
2022-11-02T14:56:53.786Z,7.13
2022-11-02T14:58:58.626Z,7.15
2022-11-02T15:01:03.820Z,6.72
2022-11-02T15:03:27.627Z,8.82
2022-11-02T15:05:35.040Z,9.10
2022-11-02T15:07:42.694Z,10.93
2022-11-02T15:09:59.757Z,9.93
2022-11-02T15:12:26.827Z,6.22
2022-11-02T15:14:46.795Z,10.05
2022-11-02T15:16:49.420Z,8.38
2022-11-02T15:18:55.549Z,9.95
2022-11-02T15:21:25.164Z,12.40
2022-11-02T15:23:31.524Z,7.53
2022-11-02T15:25:37.801Z,9.73
2022-11-02T15:27:42.454Z,7.25
2022-11-02T15:29:45.906Z,10.93
2022-11-02T15:31:54.774Z,9.02
2022-11-02T15:34:01.563Z,7.90
2022-11-02T15:36:07.637Z,7.93
2022-11-02T15:38:20.029Z,10.60
2022-11-02T15:40:28.671Z,8.20
2022-11-02T15:42:44.326Z,8.18
2022-11-02T15:45:27.033Z,10.23
2022-11-02T15:47:45.242Z,8.75
2022-11-02T15:50:17.221Z,7.63
2022-11-02T15:52:31.202Z,10.18
2022-11-02T15:54:53.684Z,9.80
2022-11-02T15:57:06.942Z,8.70
2022-11-02T15:59:47.180Z,6.13
2022-11-02T16:02:09.808Z,10.90
2022-11-02T16:04:20.958Z,9.50
2022-11-02T16:06:30.704Z,6.32
2022-11-02T16:08:35.284Z,9.57
2022-11-02T16:10:37.904Z,6.78
2022-11-02T16:12:40.639Z,7.07
2022-11-02T16:14:44.742Z,8.18
2022-11-02T16:16:48.463Z,9.43
2022-11-02T16:18:53.951Z,8.95
2022-11-02T16:21:01.815Z,11.93
2022-11-02T16:23:07.522Z,7.60
2022-11-02T16:25:15.187Z,9.50
2022-11-02T16:27:18.012Z,6.75
2022-11-02T16:29:28.422Z,9.32
2022-11-02T16:31:31.930Z,8.30
2022-11-02T16:33:38.984Z,8.30
2022-11-02T16:35:41.926Z,10.25
2022-11-02T16:37:45.232Z,8.48
2022-11-02T16:39:49.428Z,10.32
2022-11-02T16:41:55.667Z,7.68
2022-11-02T16:44:01.238Z,11.48
2022-11-02T16:46:06.392Z,12.57
2022-11-02T16:48:21.091Z,10.75
2022-11-02T16:50:25.293Z,11.80
2022-11-02T16:52:31.855Z,8.68
2022-11-02T16:54:41.985Z,11.00
2022-11-02T16:56:49.837Z,13.95
2022-11-02T16:58:59.732Z,9.05
2022-11-02T17:01:05.325Z,8.90
2022-11-02T17:03:10.422Z,8.43
2022-11-02T17:05:17.376Z,8.43
2022-11-02T17:07:23.938Z,7.97
2022-11-02T17:09:28.909Z,9.73
2022-11-02T17:11:33.039Z,8.63
2022-11-02T17:13:44.476Z,10.15
2022-11-02T17:15:49.946Z,8.75
2022-11-02T17:18:26.176Z,8.23
2022-11-02T17:20:28.832Z,6.57
2022-11-02T17:22:36.171Z,12.55
2022-11-02T17:24:39.196Z,10.02
2022-11-02T17:26:43.423Z,10.55
2022-11-02T17:28:47.328Z,10.00
2022-11-02T17:30:50.297Z,7.50
2022-11-02T17:32:52.936Z,8.88
2022-11-02T17:34:59.207Z,11.45
2022-11-02T17:37:01.816Z,12.02
2022-11-02T17:39:05.875Z,8.93
2022-11-02T17:41:27.994Z,10.80
2022-11-02T17:43:30.694Z,7.15
2022-11-02T17:45:37.158Z,8.45
2022-11-02T17:47:39.838Z,9.07
2022-11-02T17:49:42.554Z,8.88
2022-11-02T17:51:46.602Z,8.75
2022-11-02T17:53:50.240Z,10.75
2022-11-02T17:55:53.823Z,9.68
2022-11-02T17:57:57.369Z,9.98
2022-11-02T18:00:00.024Z,10.90
2022-11-02T18:02:02.832Z,8.13
2022-11-02T18:04:05.890Z,9.43
2022-11-02T18:06:08.795Z,6.22
2022-11-02T18:08:13.700Z,8.70
2022-11-02T18:10:17.126Z,9.85
2022-11-02T18:12:19.755Z,10.73
2022-11-02T18:14:22.440Z,15.48
2022-11-02T18:16:25.107Z,11.45
2022-11-02T18:18:27.797Z,9.40
2022-11-02T18:20:31.877Z,8.35
2022-11-02T18:22:34.682Z,10.75
2022-11-02T18:24:38.716Z,13.45
2022-11-02T18:26:44.256Z,9.05
2022-11-02T18:28:49.681Z,12.02
2022-11-02T18:30:52.278Z,16.00
2022-11-02T18:32:57.485Z,13.90
2022-11-02T18:35:00.137Z,12.48
2022-11-02T18:37:03.371Z,11.05
2022-11-02T18:39:06.046Z,10.93
2022-11-02T18:41:25.003Z,12.10
2022-11-02T18:43:27.651Z,14.43
2022-11-02T18:45:30.871Z,16.42
2022-11-02T18:47:33.853Z,9.05
2022-11-02T18:49:36.568Z,14.73
2022-11-02T18:51:42.820Z,9.40
2022-11-02T18:53:45.609Z,8.80
2022-11-02T18:55:48.307Z,10.95
2022-11-02T18:57:52.325Z,7.30
2022-11-02T18:59:55.031Z,9.52
2022-11-02T19:01:57.868Z,10.30
2022-11-02T19:04:01.303Z,9.57
2022-11-02T19:06:22.445Z,7.30
2022-11-02T19:08:42.818Z,10.20
2022-11-02T19:10:48.272Z,10.73
2022-11-02T19:12:52.308Z,9.30
2022-11-02T19:14:55.619Z,11.32
2022-11-02T19:16:58.219Z,10.45
2022-11-02T19:19:00.897Z,12.38
2022-11-02T19:21:03.507Z,10.63
2022-11-02T19:23:06.392Z,10.55
2022-11-02T19:25:11.890Z,11.05
2022-11-02T19:27:16.293Z,13.60
2022-11-02T19:29:20.583Z,17.88
2022-11-02T19:31:23.231Z,17.42
2022-11-02T19:33:25.852Z,14.93
2022-11-02T19:35:28.486Z,14.98
2022-11-02T19:37:34.569Z,17.13
2022-11-02T19:39:37.644Z,18.65
2022-11-02T19:41:40.313Z,15.20
2022-11-02T19:43:45.054Z,17.15
2022-11-02T19:45:49.030Z,13.05
2022-11-02T19:47:51.628Z,14.00
2022-11-02T19:49:54.298Z,10.95
2022-11-02T19:51:56.967Z,15.55
2022-11-02T19:54:00.986Z,12.23
2022-11-02T19:56:03.833Z,11.95
2022-11-02T19:58:07.677Z,12.57
2022-11-02T20:00:12.254Z,11.60
2022-11-02T20:02:16.411Z,12.77
2022-11-02T20:04:19.156Z,12.07
2022-11-02T20:06:24.281Z,15.68
2022-11-02T20:08:27.426Z,14.75
2022-11-02T20:10:30.004Z,13.80
2022-11-02T20:12:34.407Z,10.98
2022-11-02T20:14:38.259Z,13.57
2022-11-02T20:16:41.618Z,13.88
2022-11-02T20:18:47.589Z,15.93
2022-11-02T20:20:52.313Z,17.38
2022-11-02T20:22:54.886Z,14.07
2022-11-02T20:24:57.935Z,20.15
2022-11-02T20:27:02.846Z,14.10
2022-11-02T20:29:07.040Z,12.93
2022-11-02T20:31:10.944Z,12.57
2022-11-02T20:33:13.635Z,13.30
2022-11-02T20:35:22.749Z,12.75
2022-11-02T20:37:25.665Z,10.63
2022-11-02T20:39:28.368Z,14.68
2022-11-02T20:41:31.078Z,10.10
2022-11-02T20:43:33.705Z,15.43
2022-11-02T20:45:36.367Z,13.18
2022-11-02T20:47:39.254Z,15.43
2022-11-02T20:49:50.507Z,10.80
2022-11-02T20:51:55.485Z,12.00
2022-11-02T20:53:58.224Z,11.90
2022-11-02T20:56:01.896Z,12.63
2022-11-02T20:58:04.582Z,14.95
2022-11-02T21:00:08.613Z,13.40
2022-11-02T21:02:12.423Z,13.82
2022-11-02T21:04:20.288Z,12.70
2022-11-02T21:06:23.677Z,13.48
2022-11-02T21:08:27.781Z,14.65
2022-11-02T21:10:30.554Z,14.27
2022-11-02T21:12:50.940Z,17.60
2022-11-02T21:14:53.556Z,15.57
2022-11-02T21:16:56.374Z,15.18
2022-11-02T21:18:59.061Z,13.15
2022-11-02T21:21:05.856Z,12.35
2022-11-02T21:23:08.899Z,13.07
2022-11-02T21:25:13.241Z,13.75
2022-11-02T21:27:21.286Z,12.88
2022-11-02T21:29:24.237Z,15.95
2022-11-02T21:31:26.888Z,12.98
2022-11-02T21:33:29.845Z,11.27
2022-11-02T21:35:32.477Z,15.55
2022-11-02T21:37:35.097Z,14.23
2022-11-02T21:39:37.914Z,10.73
2022-11-02T21:41:42.076Z,10.82
2022-11-02T21:43:44.718Z,12.80
2022-11-02T21:45:52.619Z,13.95
2022-11-02T21:47:55.296Z,11.38
2022-11-02T21:49:57.964Z,12.32
2022-11-02T21:52:00.573Z,12.82
2022-11-02T21:54:03.253Z,12.05
2022-11-02T21:56:09.730Z,12.98
2022-11-02T21:58:14.213Z,12.27
2022-11-02T22:00:17.200Z,13.05
2022-11-02T22:02:18.962Z,12.85
2022-11-02T22:04:25.335Z,13.55
2022-11-02T22:06:31.309Z,11.50
2022-11-02T22:08:40.298Z,12.88
2022-11-02T22:10:42.972Z,12.45
2022-11-02T22:13:03.656Z,13.35
2022-11-02T22:15:09.690Z,11.52
2022-11-02T22:17:16.824Z,13.80
2022-11-02T22:19:31.268Z,12.30
2022-11-02T22:21:36.008Z,10.27
2022-11-02T22:23:38.922Z,12.43
2022-11-02T22:25:41.613Z,14.57
2022-11-02T22:27:44.230Z,13.63
2022-11-02T22:29:46.806Z,10.10
2022-11-02T22:31:51.454Z,12.80
2022-11-02T22:33:56.456Z,12.20
2022-11-02T22:35:59.059Z,11.25
2022-11-02T22:38:19.409Z,11.60
2022-11-02T22:40:22.003Z,14.43
2022-11-02T22:42:24.703Z,13.80
2022-11-02T22:44:27.457Z,11.38
2022-11-02T22:46:31.345Z,12.35
2022-11-02T22:48:35.824Z,12.55
2022-11-02T22:50:38.489Z,12.02
2022-11-02T22:52:41.079Z,10.63
2022-11-02T22:54:43.842Z,11.63
2022-11-02T22:56:48.314Z,10.75
2022-11-02T22:58:52.278Z,9.63
2022-11-02T23:00:55.670Z,14.75
2022-11-02T23:02:58.385Z,12.73
2022-11-02T23:05:02.435Z,14.70
2022-11-02T23:07:04.993Z,12.65
2022-11-02T23:09:08.131Z,10.82
2022-11-02T23:11:28.441Z,11.82
2022-11-02T23:13:31.285Z,8.98
2022-11-02T23:15:33.922Z,10.95
2022-11-02T23:17:36.522Z,13.70
2022-11-02T23:19:38.289Z,10.35
2022-11-02T23:21:44.249Z,12.43
2022-11-02T23:24:04.672Z,11.02
2022-11-02T23:26:06.349Z,14.05
2022-11-02T23:28:26.861Z,13.07
2022-11-02T23:30:50.251Z,15.35
2022-11-02T23:32:52.869Z,13.13
2022-11-02T23:35:14.859Z,10.13
2022-11-02T23:37:18.882Z,16.83
2022-11-02T23:39:38.203Z,13.80
2022-11-02T23:41:41.556Z,12.80
2022-11-02T23:43:44.311Z,11.65
2022-11-02T23:45:46.922Z,11.23
2022-11-02T23:47:57.414Z,11.63
2022-11-02T23:50:00.056Z,14.10
2022-11-02T23:52:20.194Z,12.75
2022-11-02T23:54:41.932Z,15.57
2022-11-02T23:56:44.709Z,13.77
2022-11-02T23:58:47.545Z,9.55
